MDT,Max TemperatureF,Mean TemperatureF,Min TemperatureF,Max Dew PointF,MeanDew PointF,Min DewpointF,Max Humidity, Mean Humidity, Min Humidity, Max Sea Level PressureIn, Mean Sea Level PressureIn, Min Sea Level PressureIn, Max VisibilityMiles, Mean VisibilityMiles, Min VisibilityMiles, Max Wind SpeedMPH, Mean Wind SpeedMPH, Max Gust SpeedMPH,PrecipitationIn, CloudCover, Events, WindDirDegrees
2010-10-1,73,56,39,40,36,33,70,49,27,30.30,30.23,30.09,10,10,10,23,7,26,0.00,0,,36
2010-10-2,69,57,44,41,38,34,83,58,33,30.27,30.18,30.07,10,10,10,30,20,37,0.00,0,,161
2010-10-3,84,65,45,38,32,24,70,41,11,30.05,29.95,29.86,10,10,10,22,10,28,0.00,0,,155
2010-10-4,89,70,50,39,35,27,59,36,12,29.86,29.79,29.70,10,10,10,26,14,32,0.00,0,,189
2010-10-5,78,64,50,48,42,34,77,53,29,30.32,30.02,29.77,10,10,10,24,13,29,0.00,1,,319
2010-10-6,73,57,41,48,44,41,100,69,38,30.43,30.30,30.09,10,10,9,22,10,28,0.00,2,,170
2010-10-7,80,66,51,43,39,34,66,43,19,30.08,29.96,29.89,10,10,10,32,17,39,0.00,0,,198
2010-10-8,71,59,46,45,39,35,77,53,28,30.01,29.91,29.84,10,10,10,28,14,44,T,2,,247
2010-10-9,52,50,47,52,47,40,100,83,66,30.16,30.07,29.99,10,9,2,25,17,32,0.08,8,Rain,310
2010-10-10,69,56,42,50,44,38,89,63,37,30.13,30.07,29.98,10,10,10,21,11,28,0.00,4,,323
2010-10-11,74,59,43,52,44,39,93,62,31,30.24,30.05,29.91,10,10,4,25,7,32,0.24,4,Rain,293
2010-10-12,56,43,30,45,34,24,100,65,30,30.48,30.36,30.19,10,9,1,18,6,23,0.00,1,,288
2010-10-13,65,48,31,29,24,15,78,47,15,30.46,30.35,30.24,10,10,10,21,8,24,0.00,0,,244
2010-10-14,78,61,43,32,26,22,58,36,13,30.26,30.12,29.95,10,10,8,14,5,16,0.00,0,,193
2010-10-15,77,62,46,31,25,18,50,31,11,30.05,29.93,29.85,10,10,10,30,11,36,0.00,1,,268
2010-10-16,62,43,24,28,23,19,81,52,22,30.33,30.17,30.04,10,10,10,26,10,32,0.00,1,,150
2010-10-17,61,46,30,38,31,25,89,64,38,30.17,30.07,29.99,10,10,10,29,6,33,0.00,3,,313
2010-10-18,62,44,25,33,29,23,92,61,29,30.24,30.14,30.02,10,10,10,12,3,14,0.00,0,,170
2010-10-19,61,46,31,30,25,22,78,51,23,30.12,30.06,29.99,10,10,8,20,8,25,0.00,0,,276
2010-10-20,67,51,35,29,26,24,59,41,22,30.12,30.05,29.99,10,10,10,16,6,18,0.00,0,,271
2010-10-21,75,53,30,30,26,22,72,43,13,30.02,29.88,29.75,10,10,10,16,5,23,0.00,0,,146
2010-10-22,73,52,30,36,30,25,72,46,20,29.85,29.72,29.63,10,10,10,13,3,15,0.00,0,,132
2010-10-23,59,49,38,46,42,36,96,75,53,29.78,29.72,29.64,10,10,8,12,4,14,0.07,4,Rain,32
2010-10-24,62,48,33,40,35,27,93,60,27,29.75,29.50,29.08,10,10,10,32,15,39,0.00,0,,200
2010-10-25,56,45,33,41,33,22,96,65,34,29.52,29.34,29.07,10,9,2,38,21,48,0.08,7,Rain-Snow,310
2010-10-26,45,39,32,30,28,24,89,70,51,29.67,29.55,29.46,10,9,2,36,20,44,0.03,5,Snow,306
2010-10-27,44,36,28,30,24,18,85,67,48,30.38,29.97,29.67,10,8,1,39,20,49,0.02,5,Snow,304
2010-10-28,58,43,27,23,17,9,75,45,14,30.43,30.29,30.06,10,10,10,20,10,26,0.00,0,,196
2010-10-29,67,51,34,20,16,12,52,32,12,30.04,29.90,29.82,10,10,9,36,13,46,0.00,0,,239
2010-10-30,58,41,24,29,25,16,81,54,27,30.10,29.97,29.83,10,10,10,26,8,35,0.00,0,,151
2010-10-31,61,50,38,41,33,30,82,57,32,30.12,29.95,29.83,10,10,10,24,8,29,0.02,3,,243